sensor_id;sensor_type;location;lat;lon;timestamp;temperature;humidity
48264;DHT22;34086;51.076;13.722;2023-02-11T00:00:51;1.90;99.90
48264;DHT22;34086;51.076;13.722;2023-02-11T00:01:51;2.00;99.90
48264;DHT22;34086;51.076;13.722;2023-02-11T00:02:52;2.00;99.90
48264;DHT22;34086;51.076;13.722;2023-02-11T00:03:53;2.00;99.90
48264;DHT22;34086;51.076;13.722;2023-02-11T00:04:53;2.10;99.90
48264;DHT22;34086;51.076;13.722;2023-02-11T00:06:03;2.10;99.90
48264;DHT22;34086;51.076;13.722;2023-02-11T00:07:04;2.10;99.90
48264;DHT22;34086;51.076;13.722;2023-02-11T00:08:04;2.10;99.90
48264;DHT22;34086;51.076;13.722;2023-02-11T00:09:05;2.10;99.90
48264;DHT22;34086;51.076;13.722;2023-02-11T00:10:06;2.10;99.90
48264;DHT22;34086;51.076;13.722;2023-02-11T00:11:12;2.20;99.90
48264;DHT22;34086;51.076;13.722;2023-02-11T00:12:13;2.10;99.90
48264;DHT22;34086;51.076;13.722;2023-02-11T00:13:15;2.20;99.90
48264;DHT22;34086;51.076;13.722;2023-02-11T00:14:15;2.20;99.90
48264;DHT22;34086;51.076;13.722;2023-02-11T00:15:16;2.20;99.90
48264;DHT22;34086;51.076;13.722;2023-02-11T00:16:19;2.20;99.90
48264;DHT22;34086;51.076;13.722;2023-02-11T00:17:20;2.30;99.90
48264;DHT22;34086;51.076;13.722;2023-02-11T00:18:21;2.30;99.90
48264;DHT22;34086;51.076;13.722;2023-02-11T00:19:21;2.30;99.90
48264;DHT22;34086;51.076;13.722;2023-02-11T00:20:22;2.30;99.90
48264;DHT22;34086;51.076;13.722;2023-02-11T00:21:24;2.30;99.90
48264;DHT22;34086;51.076;13.722;2023-02-11T00:22:25;2.30;99.90
48264;DHT22;34086;51.076;13.722;2023-02-11T00:23:26;2.30;99.90
48264;DHT22;34086;51.076;13.722;2023-02-11T00:24:26;2.30;99.90
48264;DHT22;34086;51.076;13.722;2023-02-11T00:25:29;2.30;99.90
48264;DHT22;34086;51.076;13.722;2023-02-11T00:26:32;2.30;99.90
48264;DHT22;34086;51.076;13.722;2023-02-11T00:27:33;2.30;99.90
48264;DHT22;34086;51.076;13.722;2023-02-11T00:28:33;2.30;99.90
48264;DHT22;34086;51.076;13.722;2023-02-11T00:29:35;2.30;99.90
48264;DHT22;34086;51.076;13.722;2023-02-11T00:30:37;2.30;99.90
48264;DHT22;34086;51.076;13.722;2023-02-11T00:31:38;2.30;99.90
48264;DHT22;34086;51.076;13.722;2023-02-11T00:32:39;2.40;99.90
48264;DHT22;34086;51.076;13.722;2023-02-11T00:33:42;2.40;99.90
48264;DHT22;34086;51.076;13.722;2023-02-11T00:34:42;2.40;99.90
48264;DHT22;34086;51.076;13.722;2023-02-11T00:35:43;2.40;99.90
48264;DHT22;34086;51.076;13.722;2023-02-11T00:36:44;2.40;99.90
48264;DHT22;34086;51.076;13.722;2023-02-11T00:37:44;2.40;99.90
48264;DHT22;34086;51.076;13.722;2023-02-11T00:38:46;2.30;99.90
48264;DHT22;34086;51.076;13.722;2023-02-11T00:39:47;2.30;99.90
48264;DHT22;34086;51.076;13.722;2023-02-11T00:40:47;2.30;99.90
48264;DHT22;34086;51.076;13.722;2023-02-11T00:41:48;2.30;99.90
48264;DHT22;34086;51.076;13.722;2023-02-11T00:42:48;2.30;99.90
48264;DHT22;34086;51.076;13.722;2023-02-11T00:43:50;2.30;99.90
48264;DHT22;34086;51.076;13.722;2023-02-11T00:44:52;2.30;99.90
48264;DHT22;34086;51.076;13.722;2023-02-11T00:45:53;2.40;99.90
48264;DHT22;34086;51.076;13.722;2023-02-11T00:46:53;2.50;99.90
48264;DHT22;34086;51.076;13.722;2023-02-11T00:47:54;2.50;99.90
48264;DHT22;34086;51.076;13.722;2023-02-11T00:48:55;2.60;99.90
48264;DHT22;34086;51.076;13.722;2023-02-11T00:49:57;2.60;99.90
48264;DHT22;34086;51.076;13.722;2023-02-11T00:50:57;2.60;99.90
48264;DHT22;34086;51.076;13.722;2023-02-11T00:51:59;2.70;99.90
48264;DHT22;34086;51.076;13.722;2023-02-11T00:52:59;2.70;99.90
48264;DHT22;34086;51.076;13.722;2023-02-11T00:54:00;2.70;99.90
48264;DHT22;34086;51.076;13.722;2023-02-11T00:55:00;2.70;99.90
48264;DHT22;34086;51.076;13.722;2023-02-11T00:56:01;2.70;99.90
48264;DHT22;34086;51.076;13.722;2023-02-11T00:57:02;2.80;99.90
48264;DHT22;34086;51.076;13.722;2023-02-11T00:58:02;2.80;99.90
48264;DHT22;34086;51.076;13.722;2023-02-11T00:59:03;2.80;99.90
48264;DHT22;34086;51.076;13.722;2023-02-11T01:00:05;2.90;99.90
48264;DHT22;34086;51.076;13.722;2023-02-11T01:01:06;2.90;99.90
48264;DHT22;34086;51.076;13.722;2023-02-11T01:02:07;2.90;99.90
48264;DHT22;34086;51.076;13.722;2023-02-11T01:03:07;2.90;99.90
48264;DHT22;34086;51.076;13.722;2023-02-11T01:04:08;2.90;99.90
48264;DHT22;34086;51.076;13.722;2023-02-11T01:05:08;2.90;99.90
48264;DHT22;34086;51.076;13.722;2023-02-11T01:06:09;2.90;99.90
48264;DHT22;34086;51.076;13.722;2023-02-11T01:07:11;2.90;99.90
48264;DHT22;34086;51.076;13.722;2023-02-11T01:08:12;2.90;99.90
48264;DHT22;34086;51.076;13.722;2023-02-11T01:09:12;3.00;99.90
48264;DHT22;34086;51.076;13.722;2023-02-11T01:10:13;2.90;99.90
48264;DHT22;34086;51.076;13.722;2023-02-11T01:11:16;2.90;99.90
48264;DHT22;34086;51.076;13.722;2023-02-11T01:12:18;2.90;99.90
48264;DHT22;34086;51.076;13.722;2023-02-11T01:13:19;2.90;99.90
48264;DHT22;34086;51.076;13.722;2023-02-11T01:14:20;2.80;99.90
48264;DHT22;34086;51.076;13.722;2023-02-11T01:15:22;2.80;99.90
48264;DHT22;34086;51.076;13.722;2023-02-11T01:16:23;2.80;99.90
48264;DHT22;34086;51.076;13.722;2023-02-11T01:17:25;2.80;99.90
48264;DHT22;34086;51.076;13.722;2023-02-11T01:18:26;2.90;99.90
48264;DHT22;34086;51.076;13.722;2023-02-11T01:19:27;2.80;99.90
48264;DHT22;34086;51.076;13.722;2023-02-11T01:20:28;2.80;99.90
48264;DHT22;34086;51.076;13.722;2023-02-11T01:21:30;2.80;99.90
48264;DHT22;34086;51.076;13.722;2023-02-11T01:22:31;2.80;99.90
48264;DHT22;34086;51.076;13.722;2023-02-11T01:23:33;2.80;99.90
48264;DHT22;34086;51.076;13.722;2023-02-11T01:24:34;2.80;99.90
48264;DHT22;34086;51.076;13.722;2023-02-11T01:25:34;2.80;99.90
48264;DHT22;34086;51.076;13.722;2023-02-11T01:26:37;2.80;99.90
48264;DHT22;34086;51.076;13.722;2023-02-11T01:27:37;2.80;99.90
48264;DHT22;34086;51.076;13.722;2023-02-11T01:28:38;2.80;99.90
48264;DHT22;34086;51.076;13.722;2023-02-11T01:29:39;2.80;99.90
48264;DHT22;34086;51.076;13.722;2023-02-11T01:30:39;2.80;99.90
48264;DHT22;34086;51.076;13.722;2023-02-11T01:31:40;2.80;99.90
48264;DHT22;34086;51.076;13.722;2023-02-11T01:32:40;2.80;99.90
48264;DHT22;34086;51.076;13.722;2023-02-11T01:33:42;2.80;99.90
48264;DHT22;34086;51.076;13.722;2023-02-11T01:34:43;2.90;99.90
48264;DHT22;34086;51.076;13.722;2023-02-11T01:35:44;2.90;99.90
48264;DHT22;34086;51.076;13.722;2023-02-11T01:36:45;2.90;99.90
48264;DHT22;34086;51.076;13.722;2023-02-11T01:37:45;2.90;99.90
48264;DHT22;34086;51.076;13.722;2023-02-11T01:38:46;2.90;99.90
48264;DHT22;34086;51.076;13.722;2023-02-11T01:39:46;2.90;99.90
48264;DHT22;34086;51.076;13.722;2023-02-11T01:40:52;2.90;99.90
48264;DHT22;34086;51.076;13.722;2023-02-11T01:41:54;2.90;99.90
48264;DHT22;34086;51.076;13.722;2023-02-11T01:42:54;2.90;99.90
48264;DHT22;34086;51.076;13.722;2023-02-11T01:43:55;2.90;99.90
48264;DHT22;34086;51.076;13.722;2023-02-11T01:44:56;3.00;99.90
48264;DHT22;34086;51.076;13.722;2023-02-11T01:46:23;3.00;99.90
48264;DHT22;34086;51.076;13.722;2023-02-11T01:47:26;2.90;99.90
48264;DHT22;34086;51.076;13.722;2023-02-11T01:48:33;2.90;99.90
48264;DHT22;34086;51.076;13.722;2023-02-11T01:49:40;3.00;99.90
48264;DHT22;34086;51.076;13.722;2023-02-11T01:50:42;3.00;99.90
48264;DHT22;34086;51.076;13.722;2023-02-11T01:53:09;3.00;99.90
48264;DHT22;34086;51.076;13.722;2023-02-11T01:54:32;3.10;99.90
48264;DHT22;34086;51.076;13.722;2023-02-11T01:55:53;3.10;99.90
48264;DHT22;34086;51.076;13.722;2023-02-11T01:57:15;3.10;99.90
48264;DHT22;34086;51.076;13.722;2023-02-11T01:58:25;3.10;99.90
48264;DHT22;34086;51.076;13.722;2023-02-11T01:59:31;3.10;99.90
48264;DHT22;34086;51.076;13.722;2023-02-11T02:00:34;3.10;99.90
48264;DHT22;34086;51.076;13.722;2023-02-11T02:01:38;3.20;99.90
48264;DHT22;34086;51.076;13.722;2023-02-11T02:02:43;3.20;99.90
48264;DHT22;34086;51.076;13.722;2023-02-11T02:03:48;3.20;99.90
48264;DHT22;34086;51.076;13.722;2023-02-11T02:04:56;3.20;99.90
48264;DHT22;34086;51.076;13.722;2023-02-11T02:06:06;3.20;99.90
48264;DHT22;34086;51.076;13.722;2023-02-11T02:07:16;3.20;99.90
48264;DHT22;34086;51.076;13.722;2023-02-11T02:09:23;3.20;99.90
48264;DHT22;34086;51.076;13.722;2023-02-11T02:10:26;3.20;99.90
48264;DHT22;34086;51.076;13.722;2023-02-11T02:11:27;3.20;99.90
48264;DHT22;34086;51.076;13.722;2023-02-11T02:12:27;3.30;99.90
48264;DHT22;34086;51.076;13.722;2023-02-11T02:13:30;3.30;99.90
48264;DHT22;34086;51.076;13.722;2023-02-11T02:14:30;3.40;99.90
48264;DHT22;34086;51.076;13.722;2023-02-11T02:15:33;3.30;99.90
48264;DHT22;34086;51.076;13.722;2023-02-11T02:16:37;3.40;99.90
48264;DHT22;34086;51.076;13.722;2023-02-11T02:17:44;3.40;99.90
48264;DHT22;34086;51.076;13.722;2023-02-11T02:20:40;3.40;99.90
48264;DHT22;34086;51.076;13.722;2023-02-11T02:31:51;3.60;99.90
48264;DHT22;34086;51.076;13.722;2023-02-11T02:34:28;3.70;99.90
48264;DHT22;34086;51.076;13.722;2023-02-11T02:37:06;3.70;99.90
48264;DHT22;34086;51.076;13.722;2023-02-11T02:38:33;3.70;99.90
48264;DHT22;34086;51.076;13.722;2023-02-11T02:39:35;3.70;99.90
48264;DHT22;34086;51.076;13.722;2023-02-11T02:42:04;3.70;99.90
48264;DHT22;34086;51.076;13.722;2023-02-11T02:43:06;3.70;99.90
48264;DHT22;34086;51.076;13.722;2023-02-11T02:44:08;3.70;99.90
48264;DHT22;34086;51.076;13.722;2023-02-11T02:45:10;3.70;99.90
48264;DHT22;34086;51.076;13.722;2023-02-11T02:46:26;3.70;99.90
48264;DHT22;34086;51.076;13.722;2023-02-11T02:47:26;3.70;99.90
48264;DHT22;34086;51.076;13.722;2023-02-11T02:48:32;3.70;99.90
48264;DHT22;34086;51.076;13.722;2023-02-11T02:49:32;3.70;99.90
48264;DHT22;34086;51.076;13.722;2023-02-11T02:50:35;3.70;99.90
48264;DHT22;34086;51.076;13.722;2023-02-11T02:51:57;3.70;99.90
48264;DHT22;34086;51.076;13.722;2023-02-11T02:53:09;3.70;99.90
48264;DHT22;34086;51.076;13.722;2023-02-11T02:54:19;3.80;99.90
48264;DHT22;34086;51.076;13.722;2023-02-11T02:55:55;3.80;99.90
48264;DHT22;34086;51.076;13.722;2023-02-11T02:58:43;3.80;99.90
48264;DHT22;34086;51.076;13.722;2023-02-11T03:01:02;3.90;99.90
48264;DHT22;34086;51.076;13.722;2023-02-11T03:02:28;3.90;99.90
48264;DHT22;34086;51.076;13.722;2023-02-11T03:06:57;4.00;99.90
48264;DHT22;34086;51.076;13.722;2023-02-11T03:08:06;4.00;99.90
48264;DHT22;34086;51.076;13.722;2023-02-11T03:09:15;4.00;99.90
48264;DHT22;34086;51.076;13.722;2023-02-11T03:10:27;4.00;99.90
48264;DHT22;34086;51.076;13.722;2023-02-11T03:11:29;4.10;99.90
48264;DHT22;34086;51.076;13.722;2023-02-11T03:12:32;4.10;99.90
48264;DHT22;34086;51.076;13.722;2023-02-11T03:13:35;4.10;99.90
48264;DHT22;34086;51.076;13.722;2023-02-11T03:14:37;4.10;99.90
48264;DHT22;34086;51.076;13.722;2023-02-11T03:15:43;4.10;99.90
48264;DHT22;34086;51.076;13.722;2023-02-11T03:16:45;4.10;99.90
48264;DHT22;34086;51.076;13.722;2023-02-11T03:17:48;4.10;99.90
48264;DHT22;34086;51.076;13.722;2023-02-11T03:19:04;4.10;99.90
48264;DHT22;34086;51.076;13.722;2023-02-11T03:20:08;4.10;99.90
48264;DHT22;34086;51.076;13.722;2023-02-11T03:21:10;4.10;99.90
48264;DHT22;34086;51.076;13.722;2023-02-11T03:22:17;4.10;99.90
48264;DHT22;34086;51.076;13.722;2023-02-11T03:23:35;4.10;99.90
48264;DHT22;34086;51.076;13.722;2023-02-11T03:24:38;4.20;99.90
48264;DHT22;34086;51.076;13.722;2023-02-11T03:25:47;4.20;99.90
48264;DHT22;34086;51.076;13.722;2023-02-11T03:26:52;4.20;99.90
48264;DHT22;34086;51.076;13.722;2023-02-11T03:28:36;4.10;99.90
48264;DHT22;34086;51.076;13.722;2023-02-11T03:29:50;4.10;99.90
48264;DHT22;34086;51.076;13.722;2023-02-11T03:32:35;4.10;99.90
48264;DHT22;34086;51.076;13.722;2023-02-11T03:34:25;4.10;99.90
48264;DHT22;34086;51.076;13.722;2023-02-11T03:35:47;4.00;99.90
48264;DHT22;34086;51.076;13.722;2023-02-11T03:37:02;4.00;99.90
48264;DHT22;34086;51.076;13.722;2023-02-11T03:38:09;3.90;99.90
48264;DHT22;34086;51.076;13.722;2023-02-11T03:39:19;3.90;99.90
48264;DHT22;34086;51.076;13.722;2023-02-11T03:40:25;3.90;99.90
48264;DHT22;34086;51.076;13.722;2023-02-11T03:41:26;3.90;99.90
48264;DHT22;34086;51.076;13.722;2023-02-11T03:42:32;3.90;99.90
48264;DHT22;34086;51.076;13.722;2023-02-11T03:43:37;3.90;99.90
48264;DHT22;34086;51.076;13.722;2023-02-11T03:45:02;3.90;99.90
48264;DHT22;34086;51.076;13.722;2023-02-11T03:46:05;3.90;99.90
48264;DHT22;34086;51.076;13.722;2023-02-11T03:47:08;4.00;99.90
48264;DHT22;34086;51.076;13.722;2023-02-11T03:48:24;4.00;99.90
48264;DHT22;34086;51.076;13.722;2023-02-11T03:49:26;4.00;99.90
48264;DHT22;34086;51.076;13.722;2023-02-11T03:50:29;4.00;99.90
48264;DHT22;34086;51.076;13.722;2023-02-11T03:51:31;4.10;99.90
48264;DHT22;34086;51.076;13.722;2023-02-11T03:52:34;4.00;99.90
48264;DHT22;34086;51.076;13.722;2023-02-11T03:53:37;4.10;99.90
48264;DHT22;34086;51.076;13.722;2023-02-11T03:54:41;4.00;99.90
48264;DHT22;34086;51.076;13.722;2023-02-11T03:55:43;4.10;99.90
48264;DHT22;34086;51.076;13.722;2023-02-11T03:56:53;4.10;99.90
48264;DHT22;34086;51.076;13.722;2023-02-11T03:57:54;4.10;99.90
48264;DHT22;34086;51.076;13.722;2023-02-11T03:58:55;4.10;99.90
48264;DHT22;34086;51.076;13.722;2023-02-11T03:59:58;4.10;99.90
48264;DHT22;34086;51.076;13.722;2023-02-11T04:00:58;4.10;99.90
48264;DHT22;34086;51.076;13.722;2023-02-11T04:02:01;4.10;99.90
48264;DHT22;34086;51.076;13.722;2023-02-11T04:03:03;4.10;99.90
48264;DHT22;34086;51.076;13.722;2023-02-11T04:04:04;4.10;99.90
48264;DHT22;34086;51.076;13.722;2023-02-11T04:05:06;4.10;99.90
48264;DHT22;34086;51.076;13.722;2023-02-11T04:06:07;4.10;99.90
48264;DHT22;34086;51.076;13.722;2023-02-11T04:07:10;4.10;99.90
48264;DHT22;34086;51.076;13.722;2023-02-11T04:08:10;4.10;99.90
48264;DHT22;34086;51.076;13.722;2023-02-11T04:09:11;4.10;99.90
48264;DHT22;34086;51.076;13.722;2023-02-11T04:10:12;4.10;99.90
48264;DHT22;34086;51.076;13.722;2023-02-11T04:11:12;4.10;99.90
48264;DHT22;34086;51.076;13.722;2023-02-11T04:12:13;4.10;99.90
48264;DHT22;34086;51.076;13.722;2023-02-11T04:13:13;4.20;99.90
48264;DHT22;34086;51.076;13.722;2023-02-11T04:14:14;4.20;99.90
48264;DHT22;34086;51.076;13.722;2023-02-11T04:15:15;4.20;99.90
48264;DHT22;34086;51.076;13.722;2023-02-11T04:16:15;4.20;99.90
48264;DHT22;34086;51.076;13.722;2023-02-11T04:17:16;4.20;99.90
48264;DHT22;34086;51.076;13.722;2023-02-11T04:18:17;4.20;99.90
48264;DHT22;34086;51.076;13.722;2023-02-11T04:19:17;4.20;99.90
48264;DHT22;34086;51.076;13.722;2023-02-11T04:20:18;4.20;99.90
48264;DHT22;34086;51.076;13.722;2023-02-11T04:21:19;4.20;99.90
48264;DHT22;34086;51.076;13.722;2023-02-11T04:22:19;4.20;99.90
48264;DHT22;34086;51.076;13.722;2023-02-11T04:23:20;4.20;99.90
48264;DHT22;34086;51.076;13.722;2023-02-11T04:24:20;4.20;99.90
48264;DHT22;34086;51.076;13.722;2023-02-11T04:25:21;4.20;99.90
48264;DHT22;34086;51.076;13.722;2023-02-11T04:26:21;4.20;99.90
48264;DHT22;34086;51.076;13.722;2023-02-11T04:27:22;4.20;99.90
48264;DHT22;34086;51.076;13.722;2023-02-11T04:28:23;4.20;99.90
48264;DHT22;34086;51.076;13.722;2023-02-11T04:29:23;4.20;99.90
48264;DHT22;34086;51.076;13.722;2023-02-11T04:30:24;4.20;99.90
48264;DHT22;34086;51.076;13.722;2023-02-11T04:31:24;4.20;99.90
48264;DHT22;34086;51.076;13.722;2023-02-11T04:32:25;4.20;99.90
48264;DHT22;34086;51.076;13.722;2023-02-11T04:33:26;4.20;99.90
48264;DHT22;34086;51.076;13.722;2023-02-11T04:34:26;4.20;99.90
48264;DHT22;34086;51.076;13.722;2023-02-11T04:35:27;4.30;99.90
48264;DHT22;34086;51.076;13.722;2023-02-11T04:36:27;4.20;99.90
48264;DHT22;34086;51.076;13.722;2023-02-11T04:37:28;4.20;99.90
48264;DHT22;34086;51.076;13.722;2023-02-11T04:38:28;4.20;99.90
48264;DHT22;34086;51.076;13.722;2023-02-11T04:39:29;4.30;99.90
48264;DHT22;34086;51.076;13.722;2023-02-11T04:40:29;4.30;99.90
48264;DHT22;34086;51.076;13.722;2023-02-11T04:41:30;4.30;99.90
48264;DHT22;34086;51.076;13.722;2023-02-11T04:42:30;4.20;99.90
48264;DHT22;34086;51.076;13.722;2023-02-11T04:43:31;4.20;99.90
48264;DHT22;34086;51.076;13.722;2023-02-11T04:44:31;4.30;99.90
48264;DHT22;34086;51.076;13.722;2023-02-11T04:45:32;4.20;99.90
48264;DHT22;34086;51.076;13.722;2023-02-11T04:46:33;4.30;99.90
48264;DHT22;34086;51.076;13.722;2023-02-11T04:47:33;4.20;99.90
48264;DHT22;34086;51.076;13.722;2023-02-11T04:48:34;4.30;99.90
48264;DHT22;34086;51.076;13.722;2023-02-11T04:49:35;4.30;99.90
48264;DHT22;34086;51.076;13.722;2023-02-11T04:50:35;4.30;99.90
48264;DHT22;34086;51.076;13.722;2023-02-11T04:51:36;4.30;99.90
48264;DHT22;34086;51.076;13.722;2023-02-11T04:52:36;4.30;99.90
48264;DHT22;34086;51.076;13.722;2023-02-11T04:53:37;4.30;99.90
48264;DHT22;34086;51.076;13.722;2023-02-11T04:54:38;4.30;99.90
48264;DHT22;34086;51.076;13.722;2023-02-11T04:55:38;4.30;99.90
48264;DHT22;34086;51.076;13.722;2023-02-11T04:56:39;4.30;99.90
48264;DHT22;34086;51.076;13.722;2023-02-11T04:57:39;4.30;99.90
48264;DHT22;34086;51.076;13.722;2023-02-11T04:58:40;4.20;99.90
48264;DHT22;34086;51.076;13.722;2023-02-11T04:59:41;4.20;99.90
48264;DHT22;34086;51.076;13.722;2023-02-11T05:00:44;4.20;99.90
48264;DHT22;34086;51.076;13.722;2023-02-11T05:01:45;4.20;99.90
48264;DHT22;34086;51.076;13.722;2023-02-11T05:02:46;4.30;99.90
48264;DHT22;34086;51.076;13.722;2023-02-11T05:03:46;4.20;99.90
48264;DHT22;34086;51.076;13.722;2023-02-11T05:04:47;4.20;99.90
48264;DHT22;34086;51.076;13.722;2023-02-11T05:05:47;4.20;99.90
48264;DHT22;34086;51.076;13.722;2023-02-11T05:06:48;4.20;99.90
48264;DHT22;34086;51.076;13.722;2023-02-11T05:07:48;4.20;99.90
48264;DHT22;34086;51.076;13.722;2023-02-11T05:08:49;4.20;99.90
48264;DHT22;34086;51.076;13.722;2023-02-11T05:09:49;4.20;99.90
48264;DHT22;34086;51.076;13.722;2023-02-11T05:10:50;4.20;99.90
48264;DHT22;34086;51.076;13.722;2023-02-11T05:11:50;4.20;99.90
48264;DHT22;34086;51.076;13.722;2023-02-11T05:12:51;4.20;99.90
48264;DHT22;34086;51.076;13.722;2023-02-11T05:13:52;4.20;99.90
48264;DHT22;34086;51.076;13.722;2023-02-11T05:14:52;4.20;99.90
48264;DHT22;34086;51.076;13.722;2023-02-11T05:15:53;4.20;99.90
48264;DHT22;34086;51.076;13.722;2023-02-11T05:16:53;4.20;99.90
48264;DHT22;34086;51.076;13.722;2023-02-11T05:17:54;4.10;99.90
48264;DHT22;34086;51.076;13.722;2023-02-11T05:18:55;4.10;99.90
48264;DHT22;34086;51.076;13.722;2023-02-11T05:19:56;4.10;99.90
48264;DHT22;34086;51.076;13.722;2023-02-11T05:20:56;4.10;99.90
48264;DHT22;34086;51.076;13.722;2023-02-11T05:21:57;4.10;99.90
48264;DHT22;34086;51.076;13.722;2023-02-11T05:22:57;4.10;99.90
48264;DHT22;34086;51.076;13.722;2023-02-11T05:23:58;4.10;99.90
48264;DHT22;34086;51.076;13.722;2023-02-11T05:24:58;4.10;99.90
48264;DHT22;34086;51.076;13.722;2023-02-11T05:25:59;4.10;99.90
48264;DHT22;34086;51.076;13.722;2023-02-11T05:27:00;4.10;99.90
48264;DHT22;34086;51.076;13.722;2023-02-11T05:28:01;4.10;99.90
48264;DHT22;34086;51.076;13.722;2023-02-11T05:29:02;4.10;99.90
48264;DHT22;34086;51.076;13.722;2023-02-11T05:30:03;4.10;99.90
48264;DHT22;34086;51.076;13.722;2023-02-11T05:31:05;4.10;99.90
48264;DHT22;34086;51.076;13.722;2023-02-11T05:32:05;4.10;99.90
48264;DHT22;34086;51.076;13.722;2023-02-11T05:33:08;4.10;99.90
48264;DHT22;34086;51.076;13.722;2023-02-11T05:34:08;4.10;99.90
48264;DHT22;34086;51.076;13.722;2023-02-11T05:35:09;4.10;99.90
48264;DHT22;34086;51.076;13.722;2023-02-11T05:36:11;4.10;99.90
48264;DHT22;34086;51.076;13.722;2023-02-11T05:37:12;4.10;99.90
48264;DHT22;34086;51.076;13.722;2023-02-11T05:38:13;4.10;99.90
48264;DHT22;34086;51.076;13.722;2023-02-11T05:39:13;4.10;99.90
48264;DHT22;34086;51.076;13.722;2023-02-11T05:40:14;4.10;99.90
48264;DHT22;34086;51.076;13.722;2023-02-11T05:41:15;4.10;99.90
48264;DHT22;34086;51.076;13.722;2023-02-11T05:42:16;4.10;99.90
48264;DHT22;34086;51.076;13.722;2023-02-11T05:43:16;4.10;99.90
48264;DHT22;34086;51.076;13.722;2023-02-11T05:44:17;4.10;99.90
48264;DHT22;34086;51.076;13.722;2023-02-11T05:45:18;4.00;99.90
48264;DHT22;34086;51.076;13.722;2023-02-11T05:46:18;4.00;99.90
48264;DHT22;34086;51.076;13.722;2023-02-11T05:47:19;4.10;99.90
48264;DHT22;34086;51.076;13.722;2023-02-11T05:48:19;4.10;99.90
48264;DHT22;34086;51.076;13.722;2023-02-11T05:49:20;4.00;99.90
48264;DHT22;34086;51.076;13.722;2023-02-11T05:50:20;4.00;99.90
48264;DHT22;34086;51.076;13.722;2023-02-11T05:51:21;4.10;99.90
48264;DHT22;34086;51.076;13.722;2023-02-11T05:52:23;4.10;99.90
48264;DHT22;34086;51.076;13.722;2023-02-11T05:53:23;4.10;99.90
48264;DHT22;34086;51.076;13.722;2023-02-11T05:54:24;4.00;99.90
48264;DHT22;34086;51.076;13.722;2023-02-11T05:55:24;4.10;99.90
48264;DHT22;34086;51.076;13.722;2023-02-11T05:56:25;4.10;99.90
48264;DHT22;34086;51.076;13.722;2023-02-11T05:57:25;4.00;99.90
48264;DHT22;34086;51.076;13.722;2023-02-11T05:58:26;4.10;99.90
48264;DHT22;34086;51.076;13.722;2023-02-11T05:59:27;4.00;99.90
48264;DHT22;34086;51.076;13.722;2023-02-11T06:00:27;4.10;99.90
48264;DHT22;34086;51.076;13.722;2023-02-11T06:01:28;4.10;99.90
48264;DHT22;34086;51.076;13.722;2023-02-11T06:02:28;4.10;99.90
48264;DHT22;34086;51.076;13.722;2023-02-11T06:03:29;4.10;99.90
48264;DHT22;34086;51.076;13.722;2023-02-11T06:04:30;4.00;99.90
48264;DHT22;34086;51.076;13.722;2023-02-11T06:05:31;4.10;99.90
48264;DHT22;34086;51.076;13.722;2023-02-11T06:06:31;4.10;99.90
48264;DHT22;34086;51.076;13.722;2023-02-11T06:07:32;4.10;99.90
48264;DHT22;34086;51.076;13.722;2023-02-11T06:08:32;4.10;99.90
48264;DHT22;34086;51.076;13.722;2023-02-11T06:09:33;4.10;99.90
48264;DHT22;34086;51.076;13.722;2023-02-11T06:10:34;4.10;99.90
48264;DHT22;34086;51.076;13.722;2023-02-11T06:11:34;4.10;99.90
48264;DHT22;34086;51.076;13.722;2023-02-11T06:12:35;4.10;99.90
48264;DHT22;34086;51.076;13.722;2023-02-11T06:13:36;4.10;99.90
48264;DHT22;34086;51.076;13.722;2023-02-11T06:14:37;4.10;99.90
48264;DHT22;34086;51.076;13.722;2023-02-11T06:15:37;4.10;99.90
48264;DHT22;34086;51.076;13.722;2023-02-11T06:16:38;4.10;99.90
48264;DHT22;34086;51.076;13.722;2023-02-11T06:17:39;4.10;99.90
48264;DHT22;34086;51.076;13.722;2023-02-11T06:18:39;4.10;99.90
48264;DHT22;34086;51.076;13.722;2023-02-11T06:19:40;4.10;99.90
48264;DHT22;34086;51.076;13.722;2023-02-11T06:20:40;4.10;99.90
48264;DHT22;34086;51.076;13.722;2023-02-11T06:21:41;4.10;99.90
48264;DHT22;34086;51.076;13.722;2023-02-11T06:22:42;4.10;99.90
48264;DHT22;34086;51.076;13.722;2023-02-11T06:23:43;4.10;99.90
48264;DHT22;34086;51.076;13.722;2023-02-11T06:24:44;4.10;99.90
48264;DHT22;34086;51.076;13.722;2023-02-11T06:25:44;4.10;99.90
48264;DHT22;34086;51.076;13.722;2023-02-11T06:26:45;4.10;99.90
48264;DHT22;34086;51.076;13.722;2023-02-11T06:27:45;4.10;99.90
48264;DHT22;34086;51.076;13.722;2023-02-11T06:28:46;4.10;99.90
48264;DHT22;34086;51.076;13.722;2023-02-11T06:29:47;4.10;99.90
48264;DHT22;34086;51.076;13.722;2023-02-11T06:30:48;4.10;99.90
48264;DHT22;34086;51.076;13.722;2023-02-11T06:31:48;4.10;99.90
48264;DHT22;34086;51.076;13.722;2023-02-11T06:32:49;4.10;99.90
48264;DHT22;34086;51.076;13.722;2023-02-11T06:33:50;4.10;99.90
48264;DHT22;34086;51.076;13.722;2023-02-11T06:34:51;4.10;99.90
48264;DHT22;34086;51.076;13.722;2023-02-11T06:35:51;4.10;99.90
48264;DHT22;34086;51.076;13.722;2023-02-11T06:36:52;4.10;99.90
48264;DHT22;34086;51.076;13.722;2023-02-11T06:37:53;4.10;99.90
48264;DHT22;34086;51.076;13.722;2023-02-11T06:38:54;4.10;99.90
48264;DHT22;34086;51.076;13.722;2023-02-11T06:39:54;4.10;99.90
48264;DHT22;34086;51.076;13.722;2023-02-11T06:40:55;4.10;99.90
48264;DHT22;34086;51.076;13.722;2023-02-11T06:41:56;4.10;99.90
48264;DHT22;34086;51.076;13.722;2023-02-11T06:42:56;4.20;99.90
48264;DHT22;34086;51.076;13.722;2023-02-11T06:43:57;4.20;99.90
48264;DHT22;34086;51.076;13.722;2023-02-11T06:44:57;4.20;99.90
48264;DHT22;34086;51.076;13.722;2023-02-11T06:45:58;4.20;99.90
48264;DHT22;34086;51.076;13.722;2023-02-11T06:46:58;4.20;99.90
48264;DHT22;34086;51.076;13.722;2023-02-11T06:47:59;4.20;99.90
48264;DHT22;34086;51.076;13.722;2023-02-11T06:48:59;4.20;99.90
48264;DHT22;34086;51.076;13.722;2023-02-11T06:50:00;4.20;99.90
48264;DHT22;34086;51.076;13.722;2023-02-11T06:51:02;4.20;99.90
48264;DHT22;34086;51.076;13.722;2023-02-11T06:52:04;4.20;99.90
48264;DHT22;34086;51.076;13.722;2023-02-11T06:53:06;4.20;99.90
48264;DHT22;34086;51.076;13.722;2023-02-11T06:54:07;4.30;99.90
48264;DHT22;34086;51.076;13.722;2023-02-11T06:55:09;4.30;99.90
48264;DHT22;34086;51.076;13.722;2023-02-11T06:56:17;4.30;99.90
48264;DHT22;34086;51.076;13.722;2023-02-11T06:57:18;4.30;99.90
48264;DHT22;34086;51.076;13.722;2023-02-11T06:58:19;4.30;99.90
48264;DHT22;34086;51.076;13.722;2023-02-11T06:59:19;4.30;99.90
48264;DHT22;34086;51.076;13.722;2023-02-11T07:00:20;4.30;99.90
48264;DHT22;34086;51.076;13.722;2023-02-11T07:01:22;4.30;99.90
48264;DHT22;34086;51.076;13.722;2023-02-11T07:02:22;4.40;99.90
48264;DHT22;34086;51.076;13.722;2023-02-11T07:03:23;4.40;99.90